Time;durP1;ratioP1;P1;durP2;ratioP2;P2;SDS_P1;SDS_P2;PMS_P1;PMS_P2;Temp;Humidity;BMP_temperature;BMP_pressure;BME280_temperature;BME280_humidity;BME280_pressure;Samples;Min_cycle;Max_cycle;Signal;HPM_P1;HPM_P2
2022/06/19 00:01:26;;;;;;;5.35;0.57;;;;;;;13.90;39.54;101331.34;4970013;28;20035;-84
2022/06/19 00:03:54;;;;;;;8.63;0.63;;;;;;;13.59;39.80;101313.50;4977054;28;20057;-77
2022/06/19 00:06:20;;;;;;;5.70;0.40;;;;;;;13.71;39.93;101311.16;4972866;28;20042;-79
2022/06/19 00:08:48;;;;;;;8.55;0.80;;;;;;;13.60;40.20;101299.44;4973286;28;20043;-81
2022/06/19 00:11:16;;;;;;;11.25;0.30;;;;;;;13.58;40.49;101298.66;4972624;28;20039;-81
2022/06/19 00:13:42;;;;;;;5.13;0.50;;;;;;;13.41;41.10;101302.88;4971801;28;20055;-82
2022/06/19 00:16:07;;;;;;;9.65;0.70;;;;;;;13.53;41.06;101301.47;4975090;28;20034;-83
2022/06/19 00:18:34;;;;;;;7.72;1.63;;;;;;;13.37;41.53;101293.44;4975342;28;20708;-82
2022/06/19 00:21:00;;;;;;;7.25;1.40;;;;;;;13.47;41.51;101286.84;4981360;28;20046;-82
2022/06/19 00:23:26;;;;;;;10.02;1.58;;;;;;;13.29;41.97;101277.16;4974976;28;20066;-82
2022/06/19 00:25:52;;;;;;;8.85;0.65;;;;;;;13.37;41.74;101274.22;4974498;28;20448;-81
2022/06/19 00:28:17;;;;;;;6.93;0.70;;;;;;;13.29;42.50;101271.91;4977045;28;20464;-82
2022/06/19 00:30:43;;;;;;;7.43;0.82;;;;;;;13.47;42.03;101275.47;4973768;28;20065;-82
2022/06/19 00:33:08;;;;;;;9.70;1.35;;;;;;;13.24;43.02;101273.91;4973932;28;20045;-80
2022/06/19 00:35:34;;;;;;;8.85;0.85;;;;;;;13.21;43.13;101274.91;4959086;28;20034;-81
2022/06/19 00:38:00;;;;;;;10.90;1.20;;;;;;;13.35;43.13;101271.66;4976185;28;20058;-84
2022/06/19 00:40:28;;;;;;;8.23;1.25;;;;;;;13.32;43.41;101266.56;4973552;28;20035;-82
2022/06/19 00:42:54;;;;;;;8.52;0.63;;;;;;;13.43;43.71;101274.78;4991314;28;20057;-81
2022/06/19 00:45:41;;;;;;;8.93;0.88;;;;;;;13.42;44.35;101273.06;4977527;28;20030;-84
2022/06/19 00:48:12;;;;;;;12.07;0.93;;;;;;;13.69;43.80;101270.13;4960800;28;20082;-80
2022/06/19 00:50:38;;;;;;;6.57;0.63;;;;;;;13.46;44.92;101264.13;4956324;28;20062;-80
2022/06/19 00:53:14;;;;;;;3.55;0.57;;;;;;;13.61;44.89;101261.78;4972056;28;20038;-82
2022/06/19 00:55:43;;;;;;;11.52;0.95;;;;;;;13.81;44.21;101240.66;4979549;28;20047;-81
2022/06/19 00:58:22;;;;;;;11.55;1.00;;;;;;;13.57;45.13;101223.44;4974114;28;20046;-83
2022/06/19 01:00:54;;;;;;;11.20;1.27;;;;;;;13.62;45.82;101216.19;4974061;28;20133;-80
2022/06/19 01:03:37;;;;;;;12.10;1.33;;;;;;;13.50;46.07;101209.72;4982857;28;20440;-81
2022/06/19 01:06:04;;;;;;;12.00;0.95;;;;;;;13.64;46.74;101209.09;4980832;28;20035;-81
2022/06/19 01:08:30;;;;;;;10.40;0.93;;;;;;;13.64;46.31;101214.34;4982363;28;20047;-84
2022/06/19 01:10:56;;;;;;;16.92;1.85;;;;;;;13.42;47.28;101223.19;4972793;28;20039;-82
2022/06/19 01:13:25;;;;;;;7.97;1.02;;;;;;;13.73;46.61;101221.78;4966927;28;20058;-81
2022/06/19 01:15:51;;;;;;;12.27;0.90;;;;;;;13.73;46.68;101229.66;4969329;28;20538;-82
2022/06/19 01:18:17;;;;;;;12.23;2.92;;;;;;;13.49;47.05;101223.75;4970815;28;20054;-84
2022/06/19 01:20:43;;;;;;;11.38;1.20;;;;;;;13.73;46.56;101214.75;4975681;28;20042;-86
2022/06/19 01:23:27;;;;;;;13.07;1.17;;;;;;;13.60;46.75;101218.03;4965967;28;20038;-85
2022/06/19 01:25:53;;;;;;;9.15;1.67;;;;;;;13.69;46.55;101220.22;4979603;28;20051;-83
2022/06/19 01:31:24;;;;;;;12.15;1.45;;;;;;;13.92;45.71;101233.09;4962714;28;20046;-82
2022/06/19 01:34:26;;;;;;;12.35;1.15;;;;;;;13.84;45.91;101237.03;4983456;28;20494;-80
2022/06/19 01:36:50;;;;;;;15.70;2.17;;;;;;;13.77;46.28;101231.22;4969493;28;20066;-80
2022/06/19 01:39:16;;;;;;;13.82;1.27;;;;;;;13.62;46.63;101227.53;4988749;28;20048;-84
2022/06/19 01:41:41;;;;;;;12.23;1.20;;;;;;;13.86;46.46;101235.19;4970793;28;20046;-82
2022/06/19 01:44:07;;;;;;;12.63;0.90;;;;;;;13.84;46.16;101237.88;4968871;28;20046;-82
2022/06/19 01:46:32;;;;;;;13.10;1.17;;;;;;;13.66;46.94;101231.72;4969369;28;20319;-84
2022/06/19 01:48:58;;;;;;;16.45;0.68;;;;;;;13.60;46.98;101245.13;4959138;28;20435;-82
2022/06/19 01:51:24;;;;;;;11.43;0.90;;;;;;;13.58;47.03;101256.63;4972321;28;20030;-83
2022/06/19 01:54:15;;;;;;;17.83;1.48;;;;;;;13.69;46.83;101281.47;4972687;28;20500;-80
2022/06/19 01:56:40;;;;;;;17.40;1.80;;;;;;;13.17;48.49;101294.31;4973804;28;20555;-83
2022/06/19 01:59:09;;;;;;;9.85;0.75;;;;;;;13.48;47.61;101314.81;4974155;28;20038;-83
2022/06/19 02:01:36;;;;;;;10.38;1.15;;;;;;;13.40;47.72;101314.28;4972518;28;20050;-82
2022/06/19 02:04:04;;;;;;;8.35;0.57;;;;;;;13.35;47.88;101318.91;4971957;28;20073;-86
2022/06/19 02:06:46;;;;;;;15.00;1.17;;;;;;;13.22;47.87;101315.13;4975780;28;20423;-82
2022/06/19 02:09:15;;;;;;;15.38;1.55;;;;;;;13.34;47.59;101296.22;4972546;28;20081;-80
2022/06/19 02:11:41;;;;;;;8.88;0.93;;;;;;;12.94;49.17;101294.47;4957677;28;20064;-78
2022/06/19 02:14:08;;;;;;;12.23;0.90;;;;;;;12.98;48.75;101299.53;4971743;28;20151;-82
2022/06/19 02:16:37;;;;;;;10.52;0.77;;;;;;;12.91;49.53;101303.31;4974637;28;20042;-82
2022/06/19 02:19:03;;;;;;;11.70;0.52;;;;;;;12.63;49.95;101299.22;4956192;28;20047;-85
2022/06/19 02:21:47;;;;;;;16.92;0.88;;;;;;;12.16;51.25;101314.28;4974745;28;20045;-84
2022/06/19 02:24:16;;;;;;;13.45;1.02;;;;;;;12.69;49.26;101288.53;4968262;28;20042;-82
2022/06/19 02:26:43;;;;;;;11.73;1.00;;;;;;;12.58;49.20;101258.38;4970579;28;20105;-80
2022/06/19 02:29:11;;;;;;;10.70;0.80;;;;;;;12.35;49.70;101246.25;4971044;28;20411;-80
2022/06/19 02:31:40;;;;;;;8.07;1.40;;;;;;;12.55;48.83;101243.63;4987451;28;20130;-84
2022/06/19 02:34:38;;;;;;;8.80;0.70;;;;;;;12.45;49.29;101232.69;4963907;28;20101;-82
2022/06/19 02:37:10;;;;;;;7.72;0.95;;;;;;;12.47;49.39;101188.06;4970748;28;20030;-83
2022/06/19 02:39:47;;;;;;;5.50;0.68;;;;;;;12.52;49.32;101186.09;4960078;28;20042;-81
2022/06/19 02:42:22;;;;;;;11.70;1.55;;;;;;;12.23;49.57;101180.31;4955952;28;20035;-82
2022/06/19 02:44:56;;;;;;;10.25;1.83;;;;;;;12.55;48.73;101169.38;4970357;28;20031;-83
2022/06/19 02:47:24;;;;;;;8.30;0.60;;;;;;;12.44;48.83;101164.59;4973401;28;20562;-83
2022/06/19 02:49:50;;;;;;;11.05;0.93;;;;;;;12.29;49.13;101180.06;4971975;28;20035;-79
2022/06/19 02:52:15;;;;;;;15.52;0.75;;;;;;;12.23;48.53;101185.56;4986675;28;20089;-80
2022/06/19 02:54:41;;;;;;;14.98;2.10;;;;;;;12.04;49.41;101174.13;4968857;28;20041;-80
2022/06/19 02:57:10;;;;;;;8.23;0.68;;;;;;;12.24;48.72;101163.66;4958832;28;20038;-81
2022/06/19 02:59:36;;;;;;;10.05;0.85;;;;;;;12.16;49.06;101149.22;4954556;28;20101;-83
2022/06/19 03:02:02;;;;;;;11.90;1.10;;;;;;;12.35;49.00;101120.44;4970351;28;20035;-82
2022/06/19 03:04:32;;;;;;;10.68;1.73;;;;;;;12.33;49.18;101125.72;4976956;28;20034;-82
2022/06/19 03:06:58;;;;;;;16.67;1.17;;;;;;;12.11;49.61;101123.22;4974315;28;20148;-83
2022/06/19 03:09:24;;;;;;;10.55;1.98;;;;;;;12.20;49.29;101128.06;4974721;28;20440;-81
2022/06/19 03:11:50;;;;;;;16.60;1.63;;;;;;;12.54;48.35;101123.97;4960084;28;20035;-81
2022/06/19 03:14:16;;;;;;;12.02;0.70;;;;;;;12.32;48.27;101136.31;4990068;28;20094;-85
2022/06/19 03:16:42;;;;;;;5.47;0.95;;;;;;;12.13;47.91;101154.56;4973050;28;20062;-79
2022/06/19 03:19:08;;;;;;;9.93;0.80;;;;;;;12.16;46.11;101126.47;4974245;28;20292;-83
2022/06/19 03:21:34;;;;;;;4.40;0.25;;;;;;;11.85;43.60;101069.28;4974046;28;20445;-82
2022/06/19 03:23:59;;;;;;;9.75;0.55;;;;;;;11.82;42.08;101017.91;4974950;28;20052;-79
2022/06/19 03:26:30;;;;;;;5.72;0.40;;;;;;;11.91;41.76;101037.59;4973891;28;20125;-84
2022/06/19 03:28:56;;;;;;;4.53;0.70;;;;;;;11.71;42.40;101114.34;4988635;28;20053;-83
2022/06/19 03:31:25;;;;;;;7.07;0.40;;;;;;;11.90;42.16;101156.38;4960030;28;20043;-83
2022/06/19 03:33:51;;;;;;;9.25;0.52;;;;;;;11.98;42.05;101149.06;4970982;28;20057;-81
2022/06/19 03:36:17;;;;;;;7.07;0.43;;;;;;;12.09;42.53;101190.53;4973689;28;20042;-83
2022/06/19 03:38:43;;;;;;;7.10;0.30;;;;;;;12.08;42.42;101238.59;4992350;28;20134;-81
2022/06/19 03:41:09;;;;;;;7.88;0.30;;;;;;;12.08;42.78;101275.28;4993577;28;20102;-82
2022/06/19 03:43:35;;;;;;;7.05;0.82;;;;;;;12.22;42.88;101317.53;4959335;28;20052;-81
2022/06/19 03:46:07;;;;;;;9.65;0.98;;;;;;;12.44;42.56;101266.81;4956161;28;20677;-81
2022/06/19 03:48:33;;;;;;;4.53;0.43;;;;;;;12.24;42.98;101215.22;4974426;28;20051;-82
2022/06/19 03:50:59;;;;;;;13.07;0.93;;;;;;;12.48;42.45;101203.72;4979806;28;20037;-81
2022/06/19 03:53:24;;;;;;;8.63;0.98;;;;;;;12.30;44.08;101270.03;4973419;28;20082;-82
2022/06/19 03:55:50;;;;;;;9.48;0.82;;;;;;;11.95;47.70;101295.00;4962981;28;20084;-77
2022/06/19 03:58:15;;;;;;;11.93;0.60;;;;;;;11.76;48.88;101274.75;4981318;28;20533;-81
2022/06/19 04:00:41;;;;;;;9.63;1.17;;;;;;;11.19;50.40;101265.53;4967292;28;20081;-80
2022/06/19 04:03:07;;;;;;;7.20;0.90;;;;;;;11.23;50.25;101275.00;4965884;28;20261;-82
2022/06/19 04:05:33;;;;;;;11.32;1.10;;;;;;;11.13;50.63;101239.59;4968205;28;20591;-80
2022/06/19 04:07:59;;;;;;;6.18;0.60;;;;;;;11.03;50.22;101178.94;4968089;28;20058;-84
2022/06/19 04:10:25;;;;;;;11.52;1.67;;;;;;;10.76;50.20;101180.75;4968451;28;20089;-82
2022/06/19 04:12:51;;;;;;;8.85;0.50;;;;;;;10.88;49.90;101205.63;4965831;28;20325;-81
2022/06/19 04:15:16;;;;;;;11.23;1.30;;;;;;;10.97;50.52;101195.72;4966870;28;20065;-83
2022/06/19 04:17:42;;;;;;;9.02;0.60;;;;;;;11.03;50.96;101190.25;4965186;28;20038;-83
2022/06/19 04:20:09;;;;;;;6.53;0.90;;;;;;;11.08;50.47;101205.75;4971433;28;20039;-82
2022/06/19 04:22:36;;;;;;;6.80;1.80;;;;;;;10.88;51.89;101248.31;4966004;28;20046;-85
2022/06/19 04:25:03;;;;;;;4.45;1.08;;;;;;;11.31;51.56;101243.28;4967561;28;20114;-80
2022/06/19 04:27:31;;;;;;;10.13;0.82;;;;;;;11.22;51.58;101185.19;4965381;28;20431;-82
2022/06/19 04:29:56;;;;;;;12.30;0.47;;;;;;;11.10;52.31;101169.09;4969476;28;20042;-80
2022/06/19 04:32:22;;;;;;;14.40;1.23;;;;;;;11.16;52.29;101174.09;4969613;28;20423;-79
2022/06/19 04:34:47;;;;;;;11.70;1.75;;;;;;;11.03;52.61;101195.47;4970370;28;20035;-81
2022/06/19 04:37:12;;;;;;;11.73;0.77;;;;;;;11.28;51.85;101147.44;4969854;28;20038;-84
2022/06/19 04:39:38;;;;;;;6.00;0.98;;;;;;;11.15;52.38;101122.66;4967417;28;20113;-81
2022/06/19 04:42:06;;;;;;;12.40;1.20;;;;;;;11.14;52.95;101118.38;4966641;28;20132;-85
2022/06/19 04:44:32;;;;;;;12.57;1.30;;;;;;;10.98;52.58;101082.31;4969223;28;20085;-82
2022/06/19 04:46:57;;;;;;;8.27;0.50;;;;;;;10.86;53.04;101101.13;4966897;28;20495;-83
2022/06/19 04:49:23;;;;;;;9.45;0.82;;;;;;;10.79;53.01;101117.88;4952652;28;20047;-82
2022/06/19 04:51:48;;;;;;;11.20;0.60;;;;;;;10.64;53.21;101117.56;4969648;28;20094;-83
2022/06/19 04:54:14;;;;;;;16.27;1.38;;;;;;;10.32;54.48;101131.75;4950496;28;20032;-82
2022/06/19 04:56:39;;;;;;;6.03;1.02;;;;;;;10.40;54.74;101131.50;4967765;28;20407;-81
2022/06/19 04:59:07;;;;;;;7.55;0.90;;;;;;;10.35;55.03;101138.66;4967836;28;20351;-80
2022/06/19 05:01:35;;;;;;;5.40;0.50;;;;;;;10.42;54.67;101150.59;4965594;28;20074;-83
2022/06/19 05:04:03;;;;;;;7.60;0.52;;;;;;;10.48;54.85;101141.66;4962878;28;20142;-81
2022/06/19 05:06:29;;;;;;;6.85;0.52;;;;;;;10.26;56.21;101118.06;4942941;28;20143;-81
2022/06/19 05:08:55;;;;;;;10.05;0.50;;;;;;;10.53;54.63;101106.63;4973468;28;21021;-81
2022/06/19 05:11:22;;;;;;;9.85;0.63;;;;;;;10.14;55.37;101091.44;4966437;28;20030;-83
2022/06/19 05:13:48;;;;;;;12.15;1.55;;;;;;;10.19;55.54;101050.38;4946362;28;20420;-82
2022/06/19 05:16:16;;;;;;;7.82;0.55;;;;;;;10.36;55.09;101047.13;4965054;28;20031;-80
2022/06/19 05:18:43;;;;;;;8.50;1.35;;;;;;;10.37;54.45;101033.19;4965826;28;20050;-80
2022/06/19 05:21:10;;;;;;;11.88;0.60;;;;;;;10.41;54.69;101028.69;4951912;28;20030;-81
2022/06/19 05:23:39;;;;;;;8.07;0.55;;;;;;;10.58;54.00;101015.00;4961997;28;20051;-82
2022/06/19 05:26:29;;;;;;;7.22;0.63;;;;;;;10.36;54.49;100984.44;4969552;28;20030;-79
2022/06/19 05:28:56;;;;;;;7.47;0.65;;;;;;;10.76;53.90;101016.06;4984196;28;20051;-79
2022/06/19 05:31:22;;;;;;;10.23;2.15;;;;;;;10.68;55.01;101010.25;4971783;28;20527;-83
2022/06/19 05:33:48;;;;;;;8.90;1.13;;;;;;;10.78;55.05;101006.38;4969625;28;20125;-82
2022/06/19 05:36:15;;;;;;;13.00;0.77;;;;;;;11.13;54.38;101019.84;4966380;28;20199;-82
2022/06/19 05:38:41;;;;;;;5.65;0.60;;;;;;;11.29;54.21;101022.72;4969420;28;20074;-77
2022/06/19 05:41:06;;;;;;;9.98;0.63;;;;;;;11.36;53.69;101040.72;4951708;28;20487;-81
2022/06/19 05:43:34;;;;;;;5.97;0.82;;;;;;;11.77;52.99;101045.16;4953580;28;20051;-84
2022/06/19 05:46:03;;;;;;;11.88;0.95;;;;;;;11.81;53.42;101058.09;4969747;28;20039;-81
2022/06/19 05:48:30;;;;;;;12.60;1.45;;;;;;;11.67;54.37;101078.75;4980652;28;20114;-82
2022/06/19 05:51:03;;;;;;;9.85;0.75;;;;;;;12.13;54.13;101084.66;4957693;28;20489;-81
2022/06/19 05:53:31;;;;;;;9.45;0.90;;;;;;;12.74;51.25;101075.03;4968900;28;20428;-79
2022/06/19 05:55:58;;;;;;;12.10;0.90;;;;;;;12.53;51.78;101075.03;4956929;28;20050;-81
2022/06/19 05:58:24;;;;;;;10.90;0.50;;;;;;;12.23;51.57;101069.41;4985352;28;20511;-81
2022/06/19 06:00:50;;;;;;;13.60;0.68;;;;;;;11.23;54.65;101081.38;4955586;28;20035;-76
2022/06/19 06:03:18;;;;;;;10.75;1.50;;;;;;;11.19;52.94;101075.41;4970366;28;20097;-84
2022/06/19 06:05:44;;;;;;;10.38;1.45;;;;;;;10.66;54.97;101064.34;4970809;28;20026;-81
2022/06/19 06:08:12;;;;;;;8.73;1.23;;;;;;;10.60;54.84;101050.63;4964776;28;20050;-79
2022/06/19 06:10:39;;;;;;;6.00;0.75;;;;;;;10.97;52.86;101044.03;4963849;28;20141;-78
2022/06/19 06:13:04;;;;;;;7.63;0.43;;;;;;;10.79;53.31;101035.09;4970257;28;20109;-79
2022/06/19 06:15:30;;;;;;;5.03;0.38;;;;;;;10.41;54.36;101033.91;4957888;28;20027;-82
2022/06/19 06:17:58;;;;;;;11.60;0.47;;;;;;;10.43;54.02;101043.38;4971833;28;20058;-78
2022/06/19 06:20:24;;;;;;;9.45;0.40;;;;;;;10.44;53.83;101052.09;4973645;28;20046;-81
2022/06/19 06:22:50;;;;;;;13.15;0.68;;;;;;;10.61;53.69;101069.75;4971904;28;20047;-75
2022/06/19 06:25:15;;;;;;;6.75;0.93;;;;;;;10.69;53.04;101077.31;4957352;28;20027;-82
2022/06/19 06:27:40;;;;;;;7.15;0.47;;;;;;;11.06;51.76;101074.19;4956090;28;20054;-77
2022/06/19 06:30:06;;;;;;;7.68;1.00;;;;;;;10.77;53.19;101054.34;4953452;28;20034;-77
2022/06/19 06:32:32;;;;;;;10.30;0.60;;;;;;;10.86;52.97;101050.56;4953073;28;20078;-81
2022/06/19 06:34:57;;;;;;;8.00;0.60;;;;;;;10.54;53.15;101039.53;4969563;28;20035;-77
2022/06/19 06:37:23;;;;;;;3.28;0.22;;;;;;;10.88;52.26;101049.59;4974021;28;20047;-82
2022/06/19 06:39:49;;;;;;;7.03;0.40;;;;;;;10.61;52.92;101052.31;4976311;28;20350;-80
2022/06/19 06:42:15;;;;;;;5.55;0.80;;;;;;;10.47;53.06;101062.44;4976595;28;20034;-83
2022/06/19 06:44:40;;;;;;;9.13;0.43;;;;;;;10.48;52.55;101051.09;4986679;28;20031;-79
2022/06/19 06:47:06;;;;;;;4.65;0.40;;;;;;;10.68;52.31;101042.47;4970457;28;20034;-82
2022/06/19 06:49:31;;;;;;;5.70;0.32;;;;;;;10.62;52.28;101059.25;4960196;28;20038;-81
2022/06/19 06:51:57;;;;;;;3.67;0.17;;;;;;;10.40;53.02;101076.63;4973236;28;20617;-82
2022/06/19 06:54:23;;;;;;;7.70;0.77;;;;;;;10.41;53.57;101087.03;4957900;28;20043;-79
2022/06/19 06:56:48;;;;;;;5.15;0.30;;;;;;;10.80;52.67;101083.00;4972894;28;20039;-80
2022/06/19 06:59:14;;;;;;;9.27;0.40;;;;;;;11.02;51.94;101097.00;4960416;28;20067;-81
2022/06/19 07:01:40;;;;;;;8.25;0.40;;;;;;;11.22;52.04;101095.38;4977170;28;20035;-85
2022/06/19 07:04:06;;;;;;;8.05;0.43;;;;;;;11.42;51.61;101082.34;4957764;28;20463;-79
2022/06/19 07:06:32;;;;;;;3.63;0.20;;;;;;;11.07;52.00;101069.81;4961195;28;20078;-80
2022/06/19 07:08:58;;;;;;;7.88;0.55;;;;;;;11.09;52.50;101063.63;4975954;28;20082;-83
2022/06/19 07:11:36;;;;;;;3.85;0.30;;;;;;;11.51;51.42;101059.31;4979196;28;20031;-85
2022/06/19 07:14:01;;;;;;;6.90;0.68;;;;;;;11.39;51.78;101055.44;4967746;28;20046;-80
2022/06/19 07:16:27;;;;;;;9.50;0.82;;;;;;;11.63;50.96;101049.19;4986486;28;20040;-80
2022/06/19 07:18:53;;;;;;;7.60;0.82;;;;;;;11.90;50.74;101042.91;4955512;28;20043;-83
2022/06/19 07:21:18;;;;;;;12.63;0.45;;;;;;;12.20;49.61;101049.44;4960755;28;20042;-83
2022/06/19 07:23:43;;;;;;;9.32;0.47;;;;;;;12.23;50.20;101054.53;4974335;28;20039;-78
2022/06/19 07:26:13;;;;;;;5.60;0.57;;;;;;;12.25;49.18;101057.94;4960118;28;20030;-83
2022/06/19 07:28:40;;;;;;;5.90;0.57;;;;;;;12.52;49.39;101055.00;4972137;28;20042;-84
2022/06/19 07:31:06;;;;;;;3.75;0.43;;;;;;;12.77;49.09;101061.78;4970502;28;20069;-80
2022/06/19 07:33:33;;;;;;;7.00;0.30;;;;;;;12.94;48.82;101067.09;4956717;28;20059;-80
2022/06/19 07:35:59;;;;;;;8.07;0.50;;;;;;;12.92;48.60;101054.97;4958967;28;20089;-81
2022/06/19 07:38:24;;;;;;;8.65;1.10;;;;;;;13.00;48.17;101043.16;4957872;28;20046;-83
2022/06/19 07:40:50;;;;;;;7.18;1.00;;;;;;;13.17;48.02;101049.41;4956305;28;20205;-81
2022/06/19 07:43:16;;;;;;;4.75;0.47;;;;;;;13.46;47.89;101075.09;4959132;28;20043;-78
2022/06/19 07:45:41;;;;;;;3.30;0.38;;;;;;;13.80;46.70;101073.44;4989014;28;20091;-80
2022/06/19 07:50:54;;;;;;;7.50;0.40;;;;;;;13.54;47.07;101090.47;4987511;28;20042;-77
2022/06/19 07:53:20;;;;;;;7.75;0.70;;;;;;;13.41;47.39;101102.50;4990910;28;20046;-80
2022/06/19 07:55:46;;;;;;;6.65;1.23;;;;;;;13.52;47.35;101100.19;4958403;28;20068;-82
2022/06/19 07:58:11;;;;;;;7.00;0.75;;;;;;;13.30;47.32;101110.88;4975827;28;20042;-83
2022/06/19 08:00:37;;;;;;;4.00;0.73;;;;;;;13.38;47.87;101100.84;4957938;28;20093;-79
2022/06/19 08:03:04;;;;;;;5.05;0.88;;;;;;;13.31;47.51;101112.56;4969172;28;20062;-85
2022/06/19 08:05:34;;;;;;;8.35;0.55;;;;;;;13.26;48.32;101104.06;4956352;28;20090;-82
2022/06/19 08:08:03;;;;;;;5.75;0.80;;;;;;;13.21;48.39;101096.44;4986102;28;20053;-81
2022/06/19 08:10:37;;;;;;;7.97;0.50;;;;;;;13.34;48.08;101096.69;4956844;28;20058;-78
2022/06/19 08:13:03;;;;;;;5.97;0.20;;;;;;;13.62;47.29;101121.63;4973654;28;20042;-78
2022/06/19 08:15:29;;;;;;;6.45;0.65;;;;;;;13.60;47.86;101119.06;4957988;28;20516;-82
2022/06/19 08:17:55;;;;;;;8.13;0.47;;;;;;;13.58;48.21;101130.59;4956145;28;20047;-83
2022/06/19 08:20:22;;;;;;;5.28;0.60;;;;;;;13.78;48.06;101130.44;4970825;28;20644;-79
2022/06/19 08:22:48;;;;;;;3.83;0.30;;;;;;;13.97;47.11;101132.19;4953292;28;20046;-80
2022/06/19 08:25:16;;;;;;;6.22;0.32;;;;;;;14.16;47.31;101151.31;4969942;28;20035;-78
2022/06/19 08:27:43;;;;;;;7.70;0.65;;;;;;;13.73;47.67;101151.69;4986847;28;20058;-78
2022/06/19 08:30:25;;;;;;;5.22;0.63;;;;;;;14.02;47.08;101165.16;4974745;28;20038;-78
2022/06/19 08:32:51;;;;;;;8.07;0.50;;;;;;;14.01;46.97;101170.50;4966377;28;20405;-78
2022/06/19 08:35:17;;;;;;;6.10;0.22;;;;;;;14.08;46.74;101178.00;4971533;28;20027;-82
2022/06/19 08:37:45;;;;;;;4.22;0.30;;;;;;;13.71;47.71;101184.22;4968643;28;20117;-79
2022/06/19 08:40:25;;;;;;;1.58;0.25;;;;;;;13.78;47.36;101192.66;4971050;28;20049;-80
2022/06/19 08:43:07;;;;;;;7.15;0.38;;;;;;;13.55;48.37;101199.84;4962437;28;20053;-78
2022/06/19 08:45:53;;;;;;;10.80;0.55;;;;;;;13.80;47.44;101207.41;4986436;28;20065;-81
2022/06/19 08:48:39;;;;;;;7.15;0.98;;;;;;;13.74;48.43;101215.59;4948121;28;20119;-81
2022/06/19 08:51:11;;;;;;;4.40;0.45;;;;;;;13.50;48.34;101223.69;4968162;28;20102;-81
2022/06/19 08:53:55;;;;;;;2.83;0.30;;;;;;;13.49;48.02;101226.38;4965994;28;20054;-80
2022/06/19 08:56:34;;;;;;;5.05;0.30;;;;;;;13.56;48.34;101221.69;4970234;28;20596;-80
2022/06/19 08:59:07;;;;;;;8.60;0.38;;;;;;;13.72;47.54;101225.34;4972415;28;20046;-85
2022/06/19 09:01:53;;;;;;;0.73;0.20;;;;;;;13.40;47.74;101235.53;4956570;28;20043;-81
2022/06/19 09:07:19;;;;;;;6.97;0.55;;;;;;;13.93;47.34;101237.44;4971734;28;20066;-81
2022/06/19 09:10:05;;;;;;;6.20;0.50;;;;;;;13.90;47.53;101236.75;4963905;28;20089;-80
2022/06/19 09:13:06;;;;;;;9.70;0.52;;;;;;;13.81;47.54;101248.53;4961354;28;20051;-78
2022/06/19 09:15:43;;;;;;;4.90;0.20;;;;;;;13.55;47.71;101249.72;4968970;28;20051;-80
2022/06/19 09:18:19;;;;;;;1.35;0.30;;;;;;;13.76;46.41;101244.41;4953724;28;20046;-82
2022/06/19 09:20:45;;;;;;;5.32;0.35;;;;;;;13.67;47.46;101246.56;4974926;28;20111;-80
2022/06/19 09:23:32;;;;;;;3.33;0.20;;;;;;;13.76;47.78;101244.41;4975256;28;20050;-81
2022/06/19 09:26:10;;;;;;;9.98;0.65;;;;;;;13.38;47.77;101254.91;4973736;28;20039;-83
2022/06/19 09:28:57;;;;;;;2.85;0.25;;;;;;;12.99;47.90;101240.03;4990802;28;20113;-82
2022/06/19 09:31:31;;;;;;;3.80;0.28;;;;;;;13.06;48.22;101244.09;4959071;28;20039;-81
2022/06/19 09:34:06;;;;;;;3.95;0.30;;;;;;;12.85;48.40;101235.41;4959228;28;21284;-82
2022/06/19 09:36:42;;;;;;;5.32;0.40;;;;;;;12.94;48.65;101237.63;4962936;28;20050;-79
2022/06/19 09:39:14;;;;;;;11.25;0.40;;;;;;;13.64;46.81;101251.94;4958465;28;20063;-78
2022/06/19 09:41:48;;;;;;;3.67;0.60;;;;;;;13.86;45.99;101241.28;4946811;28;20042;-82
2022/06/19 09:44:26;;;;;;;6.05;0.45;;;;;;;13.49;45.87;101247.38;4960352;28;20054;-81
2022/06/19 09:47:24;;;;;;;4.35;0.70;;;;;;;13.88;45.68;101244.69;4961084;28;20465;-80
2022/06/19 09:49:54;;;;;;;1.55;0.20;;;;;;;13.70;45.08;101251.66;4958063;28;20057;-81
2022/06/19 09:52:25;;;;;;;2.45;0.38;;;;;;;13.66;44.35;101255.38;4961390;28;20057;-81
2022/06/19 09:54:59;;;;;;;0.90;0.30;;;;;;;13.42;44.21;101246.81;4942794;28;20035;-83
2022/06/19 09:57:35;;;;;;;8.80;1.10;;;;;;;13.92;44.08;101245.41;4958775;28;20219;-83
2022/06/19 10:00:11;;;;;;;5.35;0.20;;;;;;;13.88;43.97;101252.56;4961066;28;21301;-82
2022/06/19 10:03:02;;;;;;;5.45;0.35;;;;;;;13.88;42.61;101249.94;4955869;28;20058;-82
2022/06/19 10:05:47;;;;;;;3.33;0.13;;;;;;;13.64;43.55;101262.47;4960833;28;20041;-82
2022/06/19 10:08:24;;;;;;;6.70;1.58;;;;;;;13.82;42.87;101250.22;4941824;28;20110;-80
2022/06/19 10:11:22;;;;;;;3.53;0.38;;;;;;;13.83;43.57;101237.94;4960053;28;20031;-80
2022/06/19 10:13:56;;;;;;;4.80;0.10;;;;;;;14.05;42.13;101248.25;4973349;28;20117;-82
2022/06/19 10:16:44;;;;;;;1.95;0.20;;;;;;;13.82;42.13;101229.22;4944119;28;20482;-84
2022/06/19 10:19:23;;;;;;;4.18;0.68;;;;;;;13.92;42.07;101222.59;4959591;28;22021;-83
2022/06/19 10:22:13;;;;;;;4.20;0.32;;;;;;;13.72;41.50;101223.56;4957698;28;20090;-81
2022/06/19 10:25:16;;;;;;;4.97;0.63;;;;;;;13.91;41.50;101213.00;4975881;28;20038;-83
2022/06/19 10:27:52;;;;;;;1.75;0.28;;;;;;;13.60;42.25;101210.16;4957287;28;20127;-84
2022/06/19 10:30:42;;;;;;;3.33;0.40;;;;;;;13.68;41.75;101193.09;4974384;28;20034;-82
2022/06/19 10:33:35;;;;;;;1.58;0.30;;;;;;;14.19;40.83;101193.25;4959934;28;20038;-80
2022/06/19 10:36:12;;;;;;;5.57;0.28;;;;;;;13.45;42.02;101194.19;4960703;28;20958;-83
2022/06/19 10:38:50;;;;;;;4.60;0.10;;;;;;;13.49;42.23;101177.31;4978396;28;20047;-80
2022/06/19 10:44:26;;;;;;;2.95;0.20;;;;;;;13.45;42.60;101183.69;4958877;28;20051;-76
2022/06/19 10:47:11;;;;;;;4.78;0.20;;;;;;;13.85;41.80;101176.53;4954901;28;20039;-82
2022/06/19 10:49:59;;;;;;;3.10;0.35;;;;;;;13.75;41.84;101182.31;4940006;28;20048;-86
2022/06/19 10:52:44;;;;;;;2.20;0.20;;;;;;;13.64;42.52;101190.69;4944932;28;20051;-84
2022/06/19 10:55:25;;;;;;;1.92;0.30;;;;;;;13.86;42.01;101201.03;4947581;28;21359;-80
2022/06/19 10:58:10;;;;;;;5.25;0.17;;;;;;;13.75;42.30;101192.81;4959331;28;20124;-80
2022/06/19 11:00:36;;;;;;;5.20;0.10;;;;;;;14.07;41.55;101199.09;4960028;28;20031;-80
2022/06/19 11:06:06;;;;;;;2.00;0.70;;;;;;;14.60;41.03;101203.47;4967682;28;20087;-81
2022/06/19 11:08:35;;;;;;;5.38;0.30;;;;;;;14.67;41.06;101202.19;4960440;28;20050;-77
2022/06/19 11:11:02;;;;;;;4.18;0.10;;;;;;;14.53;41.22;101204.72;4960955;28;20730;-76
2022/06/19 11:14:09;;;;;;;6.22;0.80;;;;;;;14.52;41.46;101195.09;4955085;28;20073;-84
2022/06/19 11:16:53;;;;;;;2.00;0.30;;;;;;;14.18;41.98;101191.53;4885062;29;20081;-80
2022/06/19 11:19:39;;;;;;;7.28;0.90;;;;;;;14.59;41.46;101199.16;4953333;28;20051;-81
2022/06/19 11:22:18;;;;;;;1.27;0.17;;;;;;;14.38;41.99;101180.00;4953736;28;20094;-82
2022/06/19 11:24:43;;;;;;;4.63;0.40;;;;;;;14.60;41.79;101189.47;4955417;28;20033;-80
2022/06/19 11:27:18;;;;;;;2.20;0.75;;;;;;;14.48;41.25;101185.69;4950718;28;20115;-82
2022/06/19 11:29:47;;;;;;;2.78;0.50;;;;;;;14.15;42.97;101183.81;4952201;28;20035;-82
2022/06/19 11:32:17;;;;;;;3.22;0.20;;;;;;;14.07;42.55;101178.94;4938742;28;20094;-79
2022/06/19 11:34:55;;;;;;;1.52;0.32;;;;;;;13.86;42.91;101183.47;4951566;28;20488;-79
2022/06/19 11:37:52;;;;;;;1.60;0.40;;;;;;;13.93;42.63;101178.78;4951947;28;20109;-81
2022/06/19 11:40:29;;;;;;;3.25;0.38;;;;;;;14.08;42.81;101185.06;4938941;28;20093;-82
2022/06/19 11:42:58;;;;;;;1.77;0.43;;;;;;;14.23;42.37;101180.78;4950871;28;20046;-80
2022/06/19 11:45:29;;;;;;;3.25;0.30;;;;;;;13.88;43.15;101179.00;4950816;28;20149;-84
2022/06/19 11:47:58;;;;;;;3.00;0.10;;;;;;;14.03;42.40;101179.16;4950809;28;20051;-81
2022/06/19 11:50:41;;;;;;;4.28;0.30;;;;;;;13.96;42.91;101185.66;4975835;28;20046;-78
2022/06/19 11:53:10;;;;;;;1.45;0.10;;;;;;;14.31;41.68;101189.16;4953265;28;20271;-79